Time;durP1;ratioP1;P1;durP2;ratioP2;P2;SDS_P1;SDS_P2;PMS_P1;PMS_P2;Temp;Humidity;BMP_temperature;BMP_pressure;BME280_temperature;BME280_humidity;BME280_pressure;Samples;Min_cycle;Max_cycle;Signal;HPM_P1;HPM_P2
2023/06/07 00:00:59;;;;;;;5.15;1.90;;;12.00;99.90;;;;;;5018978;28;20041;-76
2023/06/07 00:03:25;;;;;;;4.82;1.77;;;12.00;99.90;;;;;;5019453;28;20438;-76
2023/06/07 00:05:51;;;;;;;3.88;1.70;;;11.90;99.90;;;;;;5035379;28;20148;-76
2023/06/07 00:08:18;;;;;;;4.60;1.80;;;11.90;99.90;;;;;;5019008;28;20106;-76
2023/06/07 00:10:43;;;;;;;3.58;1.65;;;11.90;99.90;;;;;;5035569;28;20072;-76
2023/06/07 00:13:09;;;;;;;3.78;1.63;;;11.90;99.90;;;;;;5053109;28;20080;-76
2023/06/07 00:15:35;;;;;;;3.80;1.75;;;11.90;99.90;;;;;;5053162;28;20170;-76
2023/06/07 00:18:01;;;;;;;4.53;1.92;;;11.80;99.90;;;;;;5053077;28;20379;-76
2023/06/07 00:20:27;;;;;;;6.65;1.52;;;11.80;99.90;;;;;;5035375;28;20032;-76
2023/06/07 00:22:55;;;;;;;4.10;1.85;;;11.80;99.90;;;;;;5034685;28;20350;-76
2023/06/07 00:25:22;;;;;;;4.72;1.92;;;11.90;99.90;;;;;;5031684;28;20053;-76
2023/06/07 00:27:48;;;;;;;5.82;2.00;;;11.80;99.90;;;;;;5031842;28;20080;-76
2023/06/07 00:30:14;;;;;;;6.00;1.92;;;11.80;99.90;;;;;;5033367;28;20049;-76
2023/06/07 00:32:39;;;;;;;4.68;1.75;;;11.80;99.90;;;;;;5031485;28;20499;-76
2023/06/07 00:35:07;;;;;;;3.97;1.70;;;11.80;99.90;;;;;;5031733;28;20075;-76
2023/06/07 00:37:33;;;;;;;6.72;1.90;;;11.80;99.90;;;;;;5031362;28;20094;-76
2023/06/07 00:39:58;;;;;;;5.93;1.70;;;11.70;99.90;;;;;;5033007;28;20045;-76
2023/06/07 00:42:24;;;;;;;5.43;1.60;;;11.80;99.90;;;;;;5031374;28;20387;-76
2023/06/07 00:44:50;;;;;;;6.90;2.13;;;11.70;99.90;;;;;;5030568;28;20041;-76
2023/06/07 00:47:16;;;;;;;4.85;1.70;;;11.70;99.90;;;;;;5015036;28;20041;-76
2023/06/07 00:49:46;;;;;;;5.25;2.08;;;11.70;99.90;;;;;;5032636;28;20149;-76
2023/06/07 00:52:12;;;;;;;5.30;1.92;;;11.60;99.90;;;;;;5031528;28;20041;-76
2023/06/07 00:54:38;;;;;;;6.72;1.80;;;11.60;99.90;;;;;;5014723;28;20048;-76
2023/06/07 00:57:05;;;;;;;7.35;2.28;;;11.60;99.90;;;;;;5032599;28;20041;-76
2023/06/07 00:59:31;;;;;;;4.07;2.28;;;11.60;99.90;;;;;;5032509;28;20045;-76
2023/06/07 01:01:57;;;;;;;5.15;1.92;;;11.60;99.90;;;;;;5030941;28;20622;-76
2023/06/07 01:04:24;;;;;;;4.90;1.63;;;11.60;99.90;;;;;;5032227;28;20041;-76
2023/06/07 01:06:52;;;;;;;5.22;1.77;;;11.60;99.90;;;;;;5030955;28;20060;-76
2023/06/07 01:09:19;;;;;;;6.20;1.73;;;11.60;99.90;;;;;;5014799;28;20044;-76
2023/06/07 01:11:49;;;;;;;5.45;1.50;;;11.50;99.90;;;;;;5031108;28;20120;-76
2023/06/07 01:14:17;;;;;;;5.28;2.15;;;11.50;99.90;;;;;;5031474;28;20041;-76
2023/06/07 01:16:44;;;;;;;4.32;1.80;;;11.40;99.90;;;;;;5014399;28;20049;-76
2023/06/07 01:19:23;;;;;;;3.83;1.70;;;11.40;99.90;;;;;;5030947;28;20045;-76
2023/06/07 01:22:04;;;;;;;5.43;2.03;;;11.40;99.90;;;;;;5030513;28;20063;-76
2023/06/07 01:24:30;;;;;;;6.50;2.03;;;11.40;99.90;;;;;;5014123;28;20099;-76
2023/06/07 01:26:57;;;;;;;4.70;1.90;;;11.40;99.90;;;;;;5030697;28;20045;-76
2023/06/07 01:29:25;;;;;;;5.70;2.10;;;11.40;99.90;;;;;;5030667;28;20083;-76
2023/06/07 01:31:53;;;;;;;7.50;2.28;;;11.50;99.90;;;;;;5031769;28;20041;-76
2023/06/07 01:34:20;;;;;;;5.95;1.83;;;11.50;99.90;;;;;;5030546;28;20049;-76
2023/06/07 01:36:48;;;;;;;4.10;1.75;;;11.50;99.90;;;;;;5030357;28;20128;-76
2023/06/07 01:39:14;;;;;;;5.97;2.03;;;11.50;99.90;;;;;;5014078;28;20083;-76
2023/06/07 01:41:42;;;;;;;4.97;1.88;;;11.60;99.90;;;;;;5013956;28;20072;-75
2023/06/07 01:44:09;;;;;;;5.88;2.10;;;11.50;99.90;;;;;;5030579;28;20064;-76
2023/06/07 01:46:34;;;;;;;4.05;1.63;;;11.50;99.90;;;;;;5031726;28;20048;-76
2023/06/07 01:49:03;;;;;;;5.25;2.05;;;11.50;99.90;;;;;;5013806;28;20033;-76
2023/06/07 01:51:28;;;;;;;6.72;2.00;;;11.50;99.90;;;;;;5030210;28;20045;-76
2023/06/07 01:53:54;;;;;;;5.60;1.90;;;11.50;99.90;;;;;;5013425;28;20052;-76
2023/06/07 01:56:28;;;;;;;8.23;1.85;;;11.50;99.90;;;;;;5030116;28;20029;-76
2023/06/07 01:59:01;;;;;;;7.05;2.53;;;11.50;99.90;;;;;;5031468;28;20120;-76
2023/06/07 02:02:04;;;;;;;5.15;1.63;;;11.50;99.90;;;;;;5030060;28;20053;-76
2023/06/07 02:04:34;;;;;;;5.13;2.08;;;11.50;99.90;;;;;;5030030;28;20036;-76
2023/06/07 02:07:05;;;;;;;5.70;2.20;;;11.50;99.90;;;;;;5030918;28;20042;-76
2023/06/07 02:09:35;;;;;;;6.97;2.08;;;11.50;99.90;;;;;;5013932;28;20075;-76
2023/06/07 02:12:02;;;;;;;5.45;2.20;;;11.60;99.90;;;;;;5031083;28;20037;-76
2023/06/07 02:14:29;;;;;;;5.95;2.35;;;11.60;99.90;;;;;;5031156;28;20041;-76
2023/06/07 02:16:55;;;;;;;6.80;2.40;;;11.60;99.90;;;;;;5013322;28;20091;-76
2023/06/07 02:19:20;;;;;;;7.05;2.10;;;11.60;99.90;;;;;;5031070;28;20049;-77
2023/06/07 02:21:46;;;;;;;7.30;1.90;;;11.60;99.90;;;;;;5030756;28;20048;-76
2023/06/07 02:24:12;;;;;;;5.45;2.15;;;11.50;99.90;;;;;;5037854;28;20049;-76
2023/06/07 02:26:38;;;;;;;6.40;2.10;;;11.50;99.90;;;;;;5050903;28;20074;-76
2023/06/07 02:29:03;;;;;;;5.60;2.47;;;11.60;99.90;;;;;;5050723;28;20033;-76
2023/06/07 02:31:29;;;;;;;4.65;2.00;;;11.60;99.90;;;;;;5050709;28;20037;-76
2023/06/07 02:33:55;;;;;;;7.18;2.10;;;11.60;99.90;;;;;;5050290;28;20087;-76
2023/06/07 02:36:21;;;;;;;5.65;2.30;;;11.60;99.90;;;;;;5050482;28;20048;-76
2023/06/07 02:38:47;;;;;;;3.60;1.85;;;11.60;99.90;;;;;;5032555;28;20041;-76
2023/06/07 02:41:13;;;;;;;5.53;2.10;;;11.60;99.90;;;;;;5033273;28;20094;-76
2023/06/07 02:43:39;;;;;;;5.72;1.98;;;11.60;99.90;;;;;;5016368;28;20041;-76
2023/06/07 02:46:06;;;;;;;8.05;2.08;;;11.60;99.90;;;;;;5015988;28;20044;-76
2023/06/07 02:48:32;;;;;;;6.25;2.45;;;11.60;99.90;;;;;;5016175;28;20132;-76
2023/06/07 02:50:57;;;;;;;5.97;2.47;;;11.60;99.90;;;;;;5015837;28;20194;-76
2023/06/07 02:53:24;;;;;;;7.57;2.60;;;11.60;99.90;;;;;;5016142;28;20036;-76
2023/06/07 02:55:50;;;;;;;8.75;2.03;;;11.60;99.90;;;;;;5050338;28;20417;-76
2023/06/07 02:58:15;;;;;;;9.38;2.58;;;11.50;99.90;;;;;;5015913;28;20041;-76
2023/06/07 03:00:41;;;;;;;5.72;2.33;;;11.50;99.90;;;;;;5016140;28;20044;-76
2023/06/07 03:03:07;;;;;;;5.03;2.20;;;11.50;99.90;;;;;;5032513;28;20088;-76
2023/06/07 03:05:33;;;;;;;8.25;2.22;;;11.50;99.90;;;;;;5050093;28;20040;-76
2023/06/07 03:08:00;;;;;;;4.32;2.13;;;11.50;99.90;;;;;;5016251;28;20055;-76
2023/06/07 03:10:26;;;;;;;5.72;1.90;;;11.50;99.90;;;;;;5054735;28;20044;-76
2023/06/07 03:12:51;;;;;;;5.00;2.13;;;11.50;99.90;;;;;;5036366;28;20087;-76
2023/06/07 03:15:17;;;;;;;5.05;2.13;;;11.50;99.90;;;;;;5054344;28;20040;-76
2023/06/07 03:17:43;;;;;;;3.72;1.90;;;11.50;99.90;;;;;;5036370;28;20064;-76
2023/06/07 03:20:09;;;;;;;5.40;2.15;;;11.50;99.90;;;;;;5036713;28;20090;-76
2023/06/07 03:22:36;;;;;;;4.68;1.80;;;11.50;99.90;;;;;;5019888;28;20513;-76
2023/06/07 03:25:03;;;;;;;4.88;2.30;;;11.50;99.90;;;;;;5035996;28;20052;-76
2023/06/07 03:27:34;;;;;;;7.25;2.28;;;11.50;99.90;;;;;;5020278;28;20053;-76
2023/06/07 03:30:00;;;;;;;5.22;2.08;;;11.40;99.90;;;;;;5019654;28;20076;-76
2023/06/07 03:32:25;;;;;;;4.88;1.88;;;11.50;99.90;;;;;;5036162;28;20072;-76
2023/06/07 03:34:51;;;;;;;7.15;2.42;;;11.50;99.90;;;;;;5035927;28;20045;-76
2023/06/07 03:37:17;;;;;;;5.85;1.88;;;11.50;99.90;;;;;;5019535;28;20041;-76
2023/06/07 03:39:42;;;;;;;7.60;2.20;;;11.50;99.90;;;;;;5019906;28;20041;-76
2023/06/07 03:42:08;;;;;;;5.43;2.20;;;11.50;99.90;;;;;;5019325;28;20052;-76
2023/06/07 03:44:33;;;;;;;7.25;2.13;;;11.60;99.90;;;;;;5035831;28;20119;-76
2023/06/07 03:46:59;;;;;;;4.53;1.85;;;11.50;99.90;;;;;;5035758;28;20036;-76
2023/06/07 03:49:25;;;;;;;7.10;2.25;;;11.60;99.90;;;;;;5035713;28;20123;-76
2023/06/07 03:51:51;;;;;;;7.05;1.92;;;11.60;99.90;;;;;;5053921;28;20076;-76
2023/06/07 03:54:17;;;;;;;4.97;1.60;;;11.50;99.90;;;;;;5019081;28;20041;-76
2023/06/07 03:56:42;;;;;;;4.55;2.00;;;11.60;99.90;;;;;;5053746;28;20032;-76
2023/06/07 03:59:08;;;;;;;5.38;2.13;;;11.60;99.90;;;;;;5035878;28;20490;-76
2023/06/07 04:01:34;;;;;;;6.35;1.90;;;11.50;99.90;;;;;;5035464;28;20471;-76
2023/06/07 04:03:59;;;;;;;6.82;2.10;;;11.60;99.90;;;;;;5035586;28;20116;-76
2023/06/07 04:06:25;;;;;;;7.07;1.83;;;11.60;99.90;;;;;;5035571;28;20040;-76
2023/06/07 04:08:59;;;;;;;4.05;2.00;;;11.70;99.90;;;;;;5035540;28;20478;-76
2023/06/07 04:11:26;;;;;;;6.18;1.60;;;11.70;99.90;;;;;;5019179;28;20041;-76
2023/06/07 04:13:52;;;;;;;7.18;2.00;;;11.60;99.90;;;;;;5018722;28;20037;-76
2023/06/07 04:16:18;;;;;;;7.30;2.13;;;11.60;99.90;;;;;;5035034;28;20047;-76
2023/06/07 04:18:44;;;;;;;6.18;1.83;;;11.60;99.90;;;;;;5019014;28;20048;-75
2023/06/07 04:21:09;;;;;;;11.80;1.90;;;11.60;99.90;;;;;;5018767;28;20040;-76
2023/06/07 04:23:36;;;;;;;4.13;1.40;;;11.60;99.90;;;;;;5035037;28;20128;-76
2023/06/07 04:26:05;;;;;;;3.42;1.50;;;11.60;99.90;;;;;;5035328;28;20406;-76
2023/06/07 04:28:31;;;;;;;6.47;1.48;;;11.70;99.90;;;;;;5035174;28;20129;-76
2023/06/07 04:30:57;;;;;;;3.20;1.42;;;11.60;99.90;;;;;;5018341;28;20111;-76
2023/06/07 04:33:23;;;;;;;4.90;2.10;;;11.60;99.90;;;;;;5035295;28;20043;-76
2023/06/07 04:35:50;;;;;;;6.65;1.75;;;11.60;99.90;;;;;;5034939;28;20041;-76
2023/06/07 04:38:21;;;;;;;7.93;1.98;;;11.60;99.90;;;;;;5018423;28;20041;-76
2023/06/07 04:40:50;;;;;;;6.20;1.63;;;11.70;99.90;;;;;;5018440;28;20079;-76
2023/06/07 04:43:19;;;;;;;6.28;1.90;;;11.70;99.90;;;;;;5018083;28;20044;-76
2023/06/07 04:45:55;;;;;;;2.92;1.45;;;11.70;99.90;;;;;;5052862;28;20120;-76
2023/06/07 04:48:22;;;;;;;3.55;1.40;;;11.70;99.90;;;;;;5034979;28;20505;-76
2023/06/07 04:50:49;;;;;;;6.28;1.73;;;11.80;99.90;;;;;;5052556;28;20041;-76
2023/06/07 04:53:19;;;;;;;5.05;1.50;;;11.80;99.90;;;;;;5052796;28;20037;-76
2023/06/07 04:55:48;;;;;;;7.93;1.75;;;11.80;99.90;;;;;;5034413;28;20036;-76
2023/06/07 04:58:18;;;;;;;9.20;2.17;;;11.80;99.90;;;;;;5018264;28;20076;-76
2023/06/07 05:00:45;;;;;;;7.57;1.92;;;11.90;99.90;;;;;;5052476;28;20506;-76
2023/06/07 05:03:13;;;;;;;4.55;1.75;;;11.90;99.90;;;;;;5052640;28;20084;-76
2023/06/07 05:05:40;;;;;;;5.63;1.75;;;11.90;99.90;;;;;;5052707;28;20110;-76
2023/06/07 05:08:06;;;;;;;5.50;1.75;;;11.90;99.90;;;;;;5017717;28;20048;-76
2023/06/07 05:10:32;;;;;;;6.57;1.70;;;12.00;99.90;;;;;;5017947;28;20071;-76
2023/06/07 05:12:58;;;;;;;8.80;1.92;;;12.00;99.90;;;;;;5017967;28;20044;-76
2023/06/07 05:15:24;;;;;;;5.72;1.90;;;12.10;99.90;;;;;;5052159;28;20521;-76
2023/06/07 05:17:50;;;;;;;8.48;1.80;;;12.10;99.90;;;;;;5051963;28;20041;-76
2023/06/07 05:20:16;;;;;;;5.03;1.60;;;12.20;99.90;;;;;;5017660;28;20056;-76
2023/06/07 05:22:43;;;;;;;5.15;1.67;;;12.20;99.90;;;;;;5052138;28;20091;-76
2023/06/07 05:25:10;;;;;;;3.70;1.45;;;12.20;99.90;;;;;;5017085;28;20522;-76
2023/06/07 05:27:37;;;;;;;5.43;2.08;;;12.20;99.90;;;;;;5017763;28;20041;-76
2023/06/07 05:30:06;;;;;;;4.60;1.65;;;12.20;99.90;;;;;;5051901;28;20141;-76
2023/06/07 05:32:32;;;;;;;8.05;1.92;;;12.30;99.90;;;;;;5033456;28;20084;-76
2023/06/07 05:34:59;;;;;;;3.70;1.33;;;12.30;99.90;;;;;;5033879;28;20049;-76
2023/06/07 05:37:25;;;;;;;6.57;1.67;;;12.40;99.90;;;;;;5017215;28;20083;-76
2023/06/07 05:39:51;;;;;;;8.40;1.60;;;12.40;99.90;;;;;;5033850;28;20044;-75
2023/06/07 05:42:17;;;;;;;4.18;1.35;;;12.40;99.90;;;;;;5033729;28;20045;-76
2023/06/07 05:44:46;;;;;;;2.97;1.17;;;12.50;99.90;;;;;;5034017;28;20029;-76
2023/06/07 05:47:12;;;;;;;6.45;1.98;;;12.40;99.90;;;;;;5033608;28;20044;-76
2023/06/07 05:49:37;;;;;;;5.07;1.70;;;12.60;99.90;;;;;;5033571;28;20052;-76
2023/06/07 05:52:03;;;;;;;4.90;1.45;;;12.60;99.90;;;;;;5016862;28;20052;-76
2023/06/07 05:54:29;;;;;;;6.22;2.05;;;12.60;99.90;;;;;;5017038;28;20135;-76
2023/06/07 05:56:54;;;;;;;9.18;1.70;;;12.70;99.90;;;;;;5033563;28;20467;-76
2023/06/07 05:59:20;;;;;;;7.32;1.77;;;12.70;99.90;;;;;;5017008;28;20140;-75
2023/06/07 06:01:46;;;;;;;9.10;1.75;;;12.70;99.90;;;;;;5033375;28;20048;-76
2023/06/07 06:04:12;;;;;;;6.20;2.10;;;12.80;99.90;;;;;;5033366;28;20048;-76
2023/06/07 06:06:38;;;;;;;5.85;1.52;;;12.80;99.90;;;;;;5033080;28;20037;-76
2023/06/07 06:09:07;;;;;;;6.18;1.67;;;12.90;99.90;;;;;;5016655;28;20070;-76
2023/06/07 06:11:33;;;;;;;4.20;1.30;;;12.90;99.90;;;;;;5033215;28;20119;-76
2023/06/07 06:13:58;;;;;;;8.05;2.30;;;12.90;99.90;;;;;;5050873;28;20041;-76
2023/06/07 06:16:24;;;;;;;4.70;1.35;;;12.90;99.90;;;;;;5051262;28;20033;-76
2023/06/07 06:18:50;;;;;;;6.25;1.40;;;12.90;99.90;;;;;;5033001;28;20045;-76
2023/06/07 06:21:15;;;;;;;5.93;1.98;;;12.90;99.90;;;;;;5033030;28;20132;-76
2023/06/07 06:23:41;;;;;;;4.65;1.50;;;12.90;99.90;;;;;;5032993;28;20479;-76
2023/06/07 06:26:07;;;;;;;5.97;1.85;;;12.90;99.90;;;;;;5032896;28;20044;-76
2023/06/07 06:28:32;;;;;;;6.15;1.85;;;12.90;99.90;;;;;;5050903;28;20068;-76
2023/06/07 06:30:59;;;;;;;5.13;1.30;;;13.00;99.90;;;;;;5032905;28;20045;-76
2023/06/07 06:33:25;;;;;;;5.13;1.30;;;13.00;99.90;;;;;;5032857;28;20041;-76
2023/06/07 06:35:53;;;;;;;7.25;1.75;;;13.00;99.90;;;;;;5032767;28;20049;-76
2023/06/07 06:38:19;;;;;;;4.40;1.52;;;13.10;99.90;;;;;;5032682;28;20049;-76
2023/06/07 06:40:45;;;;;;;4.63;1.25;;;13.30;99.90;;;;;;5033020;28;20041;-76
2023/06/07 06:43:11;;;;;;;3.20;1.30;;;13.40;99.90;;;;;;5032213;28;20120;-76
2023/06/07 06:45:37;;;;;;;4.00;1.30;;;13.50;99.90;;;;;;5016531;28;20082;-76
2023/06/07 06:48:03;;;;;;;2.97;1.23;;;13.50;99.90;;;;;;5050264;28;20041;-76
2023/06/07 06:50:29;;;;;;;5.45;1.45;;;13.60;99.90;;;;;;5032433;28;20122;-76
2023/06/07 06:52:54;;;;;;;4.22;1.45;;;13.60;99.90;;;;;;5032834;28;20075;-76
2023/06/07 06:55:20;;;;;;;4.95;1.35;;;13.70;99.90;;;;;;5050631;28;20045;-76
2023/06/07 06:57:46;;;;;;;6.63;1.25;;;13.80;99.90;;;;;;5032204;28;20048;-75
2023/06/07 07:00:12;;;;;;;6.07;1.40;;;13.80;99.90;;;;;;5016585;28;20053;-76
2023/06/07 07:02:38;;;;;;;5.68;1.48;;;13.90;99.90;;;;;;5032365;28;20043;-76
2023/06/07 07:05:05;;;;;;;6.22;1.30;;;13.90;99.90;;;;;;5032121;28;20406;-76
2023/06/07 07:07:34;;;;;;;4.68;1.35;;;14.00;99.90;;;;;;5032605;28;20080;-76
2023/06/07 07:10:00;;;;;;;5.53;1.35;;;14.20;99.90;;;;;;5032507;28;20045;-76
2023/06/07 07:12:26;;;;;;;4.43;1.20;;;14.20;99.90;;;;;;5032625;28;20081;-75
2023/06/07 07:14:52;;;;;;;4.22;1.30;;;14.20;99.90;;;;;;5032398;28;20091;-76
2023/06/07 07:17:19;;;;;;;7.97;1.85;;;14.20;99.90;;;;;;5015999;28;20060;-76
2023/06/07 07:19:45;;;;;;;4.72;1.45;;;14.20;99.90;;;;;;5015802;28;20128;-76
2023/06/07 07:22:11;;;;;;;4.80;1.52;;;14.30;99.90;;;;;;5032578;28;20112;-76
2023/06/07 07:24:36;;;;;;;3.58;1.45;;;14.30;99.90;;;;;;5032207;28;20049;-76
2023/06/07 07:27:02;;;;;;;3.97;1.65;;;14.20;99.90;;;;;;5032200;28;20045;-76
2023/06/07 07:29:28;;;;;;;4.82;1.58;;;14.20;99.90;;;;;;5032515;28;20115;-76
2023/06/07 07:31:54;;;;;;;4.50;1.30;;;14.20;99.90;;;;;;5032227;28;20052;-76
2023/06/07 07:34:20;;;;;;;4.15;1.15;;;14.20;99.90;;;;;;5049989;28;20052;-76
2023/06/07 07:36:45;;;;;;;7.50;1.90;;;14.00;99.90;;;;;;5050162;28;20044;-76
2023/06/07 07:39:11;;;;;;;4.25;1.60;;;14.10;99.90;;;;;;5015746;28;20082;-76
2023/06/07 07:41:40;;;;;;;7.45;1.58;;;14.10;99.90;;;;;;5015846;28;20221;-76
2023/06/07 07:44:05;;;;;;;5.90;1.40;;;14.10;99.90;;;;;;5032020;28;20252;-76
2023/06/07 07:46:31;;;;;;;10.50;1.83;;;14.10;99.90;;;;;;5015601;28;20124;-76
2023/06/07 07:48:57;;;;;;;6.45;1.60;;;14.20;99.90;;;;;;5031927;28;20037;-76
2023/06/07 07:51:23;;;;;;;5.55;1.70;;;14.20;99.90;;;;;;5032567;28;20044;-76
2023/06/07 07:53:52;;;;;;;2.42;1.30;;;14.30;99.90;;;;;;5032194;28;20478;-75
2023/06/07 07:56:18;;;;;;;5.32;1.40;;;14.30;99.90;;;;;;5035825;28;20516;-76
2023/06/07 07:58:45;;;;;;;5.05;1.40;;;14.30;99.90;;;;;;5019285;28;20045;-76
2023/06/07 08:01:11;;;;;;;5.10;1.38;;;14.30;99.90;;;;;;5053594;28;20064;-76
2023/06/07 08:03:37;;;;;;;2.88;1.20;;;14.30;99.90;;;;;;5019133;28;20153;-76
2023/06/07 08:06:03;;;;;;;4.80;1.42;;;14.30;99.90;;;;;;5019252;28;20052;-75
2023/06/07 08:08:29;;;;;;;6.90;1.88;;;14.40;99.90;;;;;;5019056;28;20041;-76
2023/06/07 08:10:54;;;;;;;4.47;1.15;;;14.40;99.90;;;;;;5018859;28;20053;-76
2023/06/07 08:13:20;;;;;;;5.22;1.73;;;14.40;99.90;;;;;;5019317;28;20044;-76
2023/06/07 08:15:47;;;;;;;6.53;1.95;;;14.40;99.90;;;;;;5018822;28;20720;-76
2023/06/07 08:18:12;;;;;;;5.03;1.58;;;14.50;99.90;;;;;;5035110;28;20041;-76
2023/06/07 08:20:38;;;;;;;4.00;1.60;;;14.50;99.90;;;;;;5035543;28;20544;-76
2023/06/07 08:23:05;;;;;;;7.15;1.92;;;14.60;99.90;;;;;;5053086;28;20484;-76
2023/06/07 08:25:31;;;;;;;6.10;1.50;;;14.60;99.90;;;;;;5035132;28;20042;-76
2023/06/07 08:27:57;;;;;;;5.53;2.42;;;14.60;99.90;;;;;;5035209;28;20457;-76
2023/06/07 08:30:23;;;;;;;5.68;1.40;;;14.60;99.90;;;;;;5035063;28;20044;-76
2023/06/07 08:32:50;;;;;;;7.35;1.50;;;14.70;99.90;;;;;;5034788;28;20051;-76
2023/06/07 08:35:16;;;;;;;5.75;1.70;;;14.70;99.90;;;;;;5035267;28;20053;-77
2023/06/07 08:37:41;;;;;;;7.22;1.80;;;14.70;99.90;;;;;;5035045;28;20427;-76
2023/06/07 08:40:08;;;;;;;5.03;1.92;;;14.80;99.90;;;;;;5052878;28;20043;-76
2023/06/07 08:42:34;;;;;;;4.82;2.40;;;14.80;99.90;;;;;;5035090;28;20143;-76
2023/06/07 08:45:00;;;;;;;4.28;1.77;;;14.90;99.90;;;;;;5052496;28;20037;-76
2023/06/07 08:47:28;;;;;;;5.65;1.85;;;14.90;99.90;;;;;;5052715;28;20105;-76
2023/06/07 08:49:57;;;;;;;3.70;1.75;;;15.00;99.90;;;;;;5034642;28;20041;-76
2023/06/07 08:52:24;;;;;;;6.38;1.92;;;15.00;99.90;;;;;;5035026;28;20094;-76
2023/06/07 08:54:52;;;;;;;4.30;1.40;;;15.10;99.90;;;;;;5034860;28;20398;-76
2023/06/07 08:57:18;;;;;;;7.97;2.05;;;15.10;99.90;;;;;;5034610;28;20052;-76
2023/06/07 08:59:46;;;;;;;7.13;1.80;;;15.10;99.90;;;;;;5034594;28;20044;-76
2023/06/07 09:02:15;;;;;;;4.70;1.63;;;15.20;99.90;;;;;;5034704;28;20033;-76
2023/06/07 09:04:41;;;;;;;4.22;1.85;;;15.20;99.90;;;;;;5052703;28;20422;-76
2023/06/07 09:07:08;;;;;;;6.32;1.52;;;15.30;99.90;;;;;;5033423;28;20043;-76
2023/06/07 09:09:35;;;;;;;4.63;2.03;;;15.30;99.90;;;;;;5034241;28;20052;-76
2023/06/07 09:12:01;;;;;;;2.97;1.42;;;15.30;99.90;;;;;;5017677;28;20061;-77
2023/06/07 09:14:28;;;;;;;5.05;1.80;;;15.30;99.90;;;;;;5052093;28;20091;-76
2023/06/07 09:16:54;;;;;;;6.07;1.90;;;15.40;99.90;;;;;;5034411;28;20123;-76
2023/06/07 09:19:33;;;;;;;3.90;1.58;;;15.50;99.90;;;;;;5034230;28;20033;-77
2023/06/07 09:22:00;;;;;;;3.25;1.77;;;15.50;99.80;;;;;;5017706;28;20077;-76
2023/06/07 09:24:30;;;;;;;6.10;1.88;;;15.50;99.90;;;;;;5033809;28;20454;-76
2023/06/07 09:26:59;;;;;;;4.13;1.52;;;15.60;99.90;;;;;;5017172;28;20544;-76
2023/06/07 09:29:29;;;;;;;4.78;1.48;;;15.60;99.90;;;;;;5017543;28;20080;-76
2023/06/07 09:32:15;;;;;;;5.25;1.65;;;15.50;99.90;;;;;;5033925;28;20041;-76
2023/06/07 09:34:41;;;;;;;6.15;1.98;;;15.70;99.90;;;;;;5034140;28;20084;-76
2023/06/07 09:37:06;;;;;;;10.70;2.38;;;15.70;99.90;;;;;;5033744;28;20084;-76
2023/06/07 09:39:32;;;;;;;9.30;1.85;;;15.80;99.90;;;;;;5017210;28;20052;-76
2023/06/07 09:41:58;;;;;;;4.80;1.48;;;15.80;99.90;;;;;;5051515;28;20041;-76
2023/06/07 09:44:25;;;;;;;3.90;1.63;;;15.90;99.90;;;;;;5017444;28;20083;-76
2023/06/07 09:46:51;;;;;;;3.47;1.40;;;15.90;99.90;;;;;;5033574;28;20037;-76
2023/06/07 09:49:28;;;;;;;6.25;2.15;;;16.00;99.90;;;;;;5033611;28;20033;-76
2023/06/07 09:51:54;;;;;;;4.07;1.88;;;16.00;99.50;;;;;;5033564;28;20077;-76
2023/06/07 09:54:38;;;;;;;4.70;1.73;;;16.10;99.60;;;;;;5033717;28;20044;-76
2023/06/07 09:57:06;;;;;;;6.05;1.95;;;16.10;99.40;;;;;;5051409;28;20037;-76
2023/06/07 09:59:32;;;;;;;7.40;1.85;;;16.20;99.60;;;;;;5051297;28;20040;-76
2023/06/07 10:01:58;;;;;;;7.25;1.95;;;16.20;99.50;;;;;;5016737;28;20094;-76
2023/06/07 10:04:23;;;;;;;3.42;1.70;;;16.20;99.70;;;;;;5016804;28;20044;-76
2023/06/07 10:06:52;;;;;;;6.25;2.15;;;16.20;99.40;;;;;;5033306;28;20334;-76
2023/06/07 10:09:18;;;;;;;3.38;1.75;;;16.30;99.40;;;;;;5033244;28;20124;-76
2023/06/07 10:11:48;;;;;;;5.43;1.83;;;16.30;99.40;;;;;;5016889;28;20041;-76
2023/06/07 10:14:16;;;;;;;8.40;2.05;;;16.40;99.30;;;;;;5033518;28;20041;-76
2023/06/07 10:17:10;;;;;;;4.47;1.70;;;16.30;99.00;;;;;;5033062;28;20041;-76
2023/06/07 10:19:51;;;;;;;4.78;1.63;;;16.40;98.30;;;;;;5030718;28;20110;-76
2023/06/07 10:22:21;;;;;;;5.85;2.58;;;16.40;98.80;;;;;;5050914;28;20076;-76
2023/06/07 10:25:07;;;;;;;4.55;1.63;;;16.50;98.80;;;;;;5032916;28;20506;-76
2023/06/07 10:28:08;;;;;;;5.70;1.92;;;16.50;98.50;;;;;;5033314;28;20053;-76
2023/06/07 10:30:36;;;;;;;4.97;2.10;;;16.50;97.80;;;;;;5016340;28;20056;-76
2023/06/07 10:33:04;;;;;;;5.68;1.98;;;16.60;98.30;;;;;;5032942;28;20088;-76
2023/06/07 10:35:31;;;;;;;3.20;1.98;;;16.60;98.40;;;;;;5033094;28;20441;-76
2023/06/07 10:37:57;;;;;;;5.07;2.03;;;16.70;98.20;;;;;;5016677;28;20037;-76
2023/06/07 10:40:25;;;;;;;5.15;1.70;;;16.70;98.30;;;;;;5050764;28;20033;-76
2023/06/07 10:42:52;;;;;;;7.05;1.90;;;16.80;98.30;;;;;;5016260;28;20128;-75
2023/06/07 10:45:19;;;;;;;5.22;1.83;;;16.80;98.40;;;;;;5032586;28;20072;-76
2023/06/07 10:47:48;;;;;;;5.95;1.80;;;16.90;98.10;;;;;;5032647;28;20047;-76
2023/06/07 10:50:26;;;;;;;6.32;2.05;;;16.90;98.10;;;;;;5016206;28;20103;-76
2023/06/07 10:52:56;;;;;;;4.03;2.08;;;16.90;97.70;;;;;;5032856;28;20063;-76
2023/06/07 10:55:27;;;;;;;4.38;2.08;;;17.00;97.80;;;;;;5032339;28;20052;-76
2023/06/07 10:57:53;;;;;;;8.25;1.63;;;17.10;97.60;;;;;;5015907;28;20047;-76
2023/06/07 11:00:29;;;;;;;4.57;1.50;;;17.10;97.60;;;;;;5016124;28;20120;-76
2023/06/07 11:03:35;;;;;;;4.15;1.67;;;17.20;97.20;;;;;;5032434;28;20044;-76
2023/06/07 11:06:06;;;;;;;4.72;1.95;;;17.20;96.70;;;;;;5032005;28;20036;-76
2023/06/07 11:08:33;;;;;;;5.32;1.80;;;17.30;97.40;;;;;;5016103;28;20040;-76
2023/06/07 11:11:03;;;;;;;6.45;2.20;;;17.40;97.40;;;;;;5015468;28;20132;-75
2023/06/07 11:13:31;;;;;;;3.50;1.77;;;17.40;97.10;;;;;;5015778;28;20454;-76
2023/06/07 11:16:23;;;;;;;6.53;1.90;;;17.40;97.00;;;;;;5032592;28;20179;-76
2023/06/07 11:19:08;;;;;;;5.00;2.05;;;17.40;95.80;;;;;;5032240;28;20044;-76
2023/06/07 11:21:57;;;;;;;4.03;1.55;;;17.40;96.40;;;;;;5015556;28;20044;-76
2023/06/07 11:24:23;;;;;;;2.40;1.30;;;17.40;96.20;;;;;;5032208;28;20518;-76
2023/06/07 11:26:50;;;;;;;6.20;1.85;;;17.50;97.10;;;;;;5032588;28;20059;-76
2023/06/07 11:29:16;;;;;;;4.97;2.05;;;17.50;97.00;;;;;;5033413;28;20084;-76
2023/06/07 11:31:48;;;;;;;4.60;1.92;;;17.60;96.90;;;;;;5036198;28;20529;-76
2023/06/07 11:34:14;;;;;;;3.72;2.08;;;17.50;96.80;;;;;;5036114;28;20076;-76
2023/06/07 11:36:43;;;;;;;4.00;1.80;;;17.60;96.60;;;;;;5020122;28;20577;-76
2023/06/07 11:39:09;;;;;;;4.60;1.73;;;17.60;96.40;;;;;;5035808;28;20041;-76
2023/06/07 11:41:44;;;;;;;3.47;1.90;;;17.60;96.70;;;;;;5035828;28;20124;-76
2023/06/07 11:44:10;;;;;;;8.35;2.00;;;17.60;96.20;;;;;;5036029;28;20494;-76
2023/06/07 11:46:36;;;;;;;6.07;1.77;;;17.60;96.60;;;;;;5053612;28;20043;-76
2023/06/07 11:49:11;;;;;;;5.25;1.98;;;17.80;96.60;;;;;;5019370;28;20132;-76
2023/06/07 11:51:38;;;;;;;4.27;1.80;;;17.70;95.10;;;;;;5035669;28;20052;-76
2023/06/07 11:54:04;;;;;;;4.50;1.95;;;17.80;96.30;;;;;;5035760;28;20283;-76
2023/06/07 11:56:32;;;;;;;8.18;2.00;;;17.80;96.20;;;;;;5019319;28;20055;-76
2023/06/07 11:58:58;;;;;;;5.35;1.88;;;17.90;96.40;;;;;;5035440;28;20521;-76
2023/06/07 12:01:25;;;;;;;7.28;2.15;;;17.90;96.20;;;;;;5035662;28;20036;-76
2023/06/07 12:03:51;;;;;;;5.68;2.33;;;18.00;96.10;;;;;;5019357;28;20136;-76
2023/06/07 12:06:18;;;;;;;5.55;2.45;;;18.00;96.10;;;;;;5035346;28;20585;-76
2023/06/07 12:08:48;;;;;;;5.57;1.90;;;18.10;96.40;;;;;;5035735;28;20345;-76
2023/06/07 12:11:14;;;;;;;9.25;2.30;;;18.10;96.20;;;;;;5018941;28;20037;-76
2023/06/07 12:13:40;;;;;;;5.55;2.20;;;18.10;95.80;;;;;;5035447;28;20090;-77
2023/06/07 12:16:07;;;;;;;3.63;1.90;;;18.20;95.80;;;;;;5035282;28;20510;-76
2023/06/07 12:18:38;;;;;;;5.80;1.65;;;18.20;95.50;;;;;;5035167;28;20111;-76
2023/06/07 12:21:10;;;;;;;4.93;2.10;;;18.30;95.50;;;;;;5018605;28;20040;-76
2023/06/07 12:23:38;;;;;;;4.70;1.88;;;18.30;95.50;;;;;;5035081;28;20080;-76
2023/06/07 12:26:10;;;;;;;6.55;2.10;;;18.30;95.20;;;;;;5034883;28;20124;-76
2023/06/07 12:28:37;;;;;;;4.70;1.63;;;18.40;95.10;;;;;;5018581;28;20049;-76
2023/06/07 12:31:03;;;;;;;4.50;1.83;;;18.40;95.00;;;;;;5035072;28;20045;-76
2023/06/07 12:33:28;;;;;;;6.50;2.05;;;18.40;94.90;;;;;;5052607;28;20190;-76
2023/06/07 12:35:59;;;;;;;6.07;2.15;;;18.40;94.80;;;;;;5034967;28;20044;-76
2023/06/07 12:38:26;;;;;;;3.90;1.80;;;18.50;94.60;;;;;;5034679;28;20399;-76
2023/06/07 12:40:51;;;;;;;5.53;2.25;;;18.40;94.80;;;;;;5051129;28;20033;-76
2023/06/07 12:43:17;;;;;;;7.15;1.90;;;18.50;94.70;;;;;;5034700;28;20048;-76
2023/06/07 12:45:43;;;;;;;5.80;1.90;;;18.50;94.40;;;;;;5035156;28;20673;-76
2023/06/07 12:48:09;;;;;;;5.82;1.98;;;18.50;94.60;;;;;;5034561;28;20047;-76